Time;durP1;ratioP1;P1;durP2;ratioP2;P2;SDS_P1;SDS_P2;PMS_P1;PMS_P2;Temp;Humidity;BMP_temperature;BMP_pressure;BME280_temperature;BME280_humidity;BME280_pressure;Samples;Min_cycle;Max_cycle;Signal;HPM_P1;HPM_P2
2021/12/09 00:01:01;;;;;;;5.85;1.60;;;;;;;-149.78;100.00;50610.31;5137881;27;20470;-71
2021/12/09 00:03:34;;;;;;;5.60;2.50;;;;;;;-149.78;100.00;50596.63;5138057;27;20557;-70
2021/12/09 00:06:02;;;;;;;3.28;1.38;;;;;;;-149.78;100.00;50606.41;5137735;27;20461;-70
2021/12/09 00:08:29;;;;;;;9.88;2.30;;;;;;;-149.78;100.00;50612.25;5137889;27;20043;-70
2021/12/09 00:11:02;;;;;;;1.52;1.17;;;;;;;-149.78;100.00;50582.94;5145258;27;20054;-70
2021/12/09 00:13:29;;;;;;;3.58;1.10;;;;;;;-149.78;100.00;50625.94;5137442;27;20031;-70
2021/12/09 00:15:56;;;;;;;1.45;0.80;;;;;;;-149.78;100.00;50604.44;5137262;27;20114;-71
2021/12/09 00:18:23;;;;;;;1.52;0.52;;;;;;;-149.78;100.00;50608.34;5118578;27;20481;-70
2021/12/09 00:20:49;;;;;;;2.83;0.80;;;;;;;-149.78;100.00;50596.63;5136984;27;20044;-70
2021/12/09 00:23:15;;;;;;;1.75;1.02;;;;;;;-149.78;100.00;50627.91;5137120;27;20035;-70
2021/12/09 00:25:41;;;;;;;1.95;0.82;;;;;;;-149.78;100.00;50600.53;5118994;27;20370;-70
2021/12/09 00:28:06;;;;;;;1.35;0.50;;;;;;;-149.78;100.00;50614.22;5137262;27;20026;-70
2021/12/09 00:30:33;;;;;;;3.33;1.02;;;;;;;-149.78;100.00;50606.41;5136804;27;20031;-70
2021/12/09 00:33:02;;;;;;;1.80;0.90;;;;;;;-149.78;100.00;50604.44;5136709;27;20126;-70
2021/12/09 00:35:33;;;;;;;1.17;0.43;;;;;;;-149.78;100.00;50588.78;5136628;27;20482;-70
2021/12/09 00:38:08;;;;;;;0.73;0.35;;;;;;;-149.78;100.00;50580.97;5136784;27;20431;-70
2021/12/09 00:40:34;;;;;;;0.82;0.45;;;;;;;-149.78;100.00;50622.03;5136457;27;20031;-70
2021/12/09 00:43:03;;;;;;;1.13;0.60;;;;;;;-149.78;100.00;50612.25;5136689;27;20509;-70
2021/12/09 00:45:30;;;;;;;1.27;0.50;;;;;;;-149.78;100.00;50620.09;5136755;27;20027;-70
2021/12/09 00:47:56;;;;;;;1.00;0.47;;;;;;;-149.78;100.00;50612.25;5137019;27;20126;-70
2021/12/09 00:50:23;;;;;;;0.68;0.47;;;;;;;-149.78;100.00;50629.88;5137017;27;20055;-70
2021/12/09 00:52:49;;;;;;;3.25;0.47;;;;;;;-149.78;100.00;50580.97;5137031;27;20363;-70
2021/12/09 00:55:16;;;;;;;3.97;0.50;;;;;;;-149.78;100.00;50604.44;5136753;27;20063;-70
2021/12/09 00:57:43;;;;;;;0.80;0.60;;;;;;;-149.78;100.00;50584.88;5136761;27;20041;-70
2021/12/09 01:00:18;;;;;;;0.70;0.40;;;;;;;-149.78;100.00;50596.63;5136550;27;20087;-70
2021/12/09 01:02:44;;;;;;;0.75;0.43;;;;;;;-149.78;100.00;50620.09;5118152;27;20533;-70
2021/12/09 01:05:11;;;;;;;1.45;0.47;;;;;;;-149.78;100.00;50573.16;5136321;27;20114;-70
2021/12/09 01:07:39;;;;;;;2.47;0.50;;;;;;;-149.78;100.00;50631.81;5136418;27;20039;-69
2021/12/09 01:10:09;;;;;;;3.08;0.57;;;;;;;-149.78;100.00;50614.22;5136245;27;20019;-70
2021/12/09 01:12:35;;;;;;;2.20;0.88;;;;;;;-149.78;100.00;50600.53;5117931;27;20046;-70
2021/12/09 01:15:00;;;;;;;2.38;0.60;;;;;;;-149.78;100.00;50604.44;5117879;27;20031;-70
2021/12/09 01:17:27;;;;;;;0.93;0.85;;;;;;;-149.78;100.00;50600.53;5136236;27;20038;-70
2021/12/09 01:19:54;;;;;;;0.85;0.50;;;;;;;-149.78;100.00;50606.41;5136346;27;20035;-70
2021/12/09 01:22:27;;;;;;;2.40;0.73;;;;;;;-149.78;100.00;50592.72;5136244;27;20048;-70
2021/12/09 01:24:54;;;;;;;1.48;0.70;;;;;;;-149.78;100.00;50620.09;5136479;27;20542;-70
2021/12/09 01:27:19;;;;;;;4.00;0.77;;;;;;;-149.78;100.00;50596.63;5136215;27;20130;-70
2021/12/09 01:29:52;;;;;;;2.40;0.90;;;;;;;-149.78;100.00;50600.53;5136324;27;20031;-70
2021/12/09 01:32:25;;;;;;;3.90;0.82;;;;;;;-149.78;100.00;50631.81;5136366;27;20035;-70
2021/12/09 01:34:50;;;;;;;4.88;0.70;;;;;;;-149.78;100.00;50616.19;5136214;27;20042;-70
2021/12/09 01:37:16;;;;;;;3.28;0.80;;;;;;;-149.78;100.00;50592.72;5136077;27;20031;-70
2021/12/09 01:39:42;;;;;;;1.55;0.80;;;;;;;-149.78;100.00;50580.97;5136223;27;20398;-70
2021/12/09 01:42:07;;;;;;;8.73;1.30;;;;;;;-149.78;100.00;50608.34;5135914;27;20463;-70
2021/12/09 01:44:33;;;;;;;5.57;1.63;;;;;;;-149.78;100.00;50592.72;5136140;27;20538;-70
2021/12/09 01:46:59;;;;;;;4.63;1.20;;;;;;;-149.78;100.00;50624.00;5136010;27;20031;-70
2021/12/09 01:49:24;;;;;;;2.30;1.00;;;;;;;-149.78;100.00;50608.34;5135722;27;20165;-70
2021/12/09 01:51:50;;;;;;;3.90;0.85;;;;;;;-149.78;100.00;50588.78;5135842;27;20039;-70
2021/12/09 01:54:17;;;;;;;3.65;0.90;;;;;;;-149.78;100.00;50604.44;5135827;27;20026;-70
2021/12/09 01:56:43;;;;;;;3.97;0.77;;;;;;;-149.78;100.00;50618.13;5135749;27;20030;-70
2021/12/09 01:59:09;;;;;;;6.70;1.10;;;;;;;-149.78;100.00;50618.13;5135626;27;20486;-70
2021/12/09 02:01:36;;;;;;;3.97;0.98;;;;;;;-149.78;100.00;50620.09;5135698;27;20500;-70
2021/12/09 02:04:05;;;;;;;6.47;1.10;;;;;;;-149.78;100.00;50612.25;5135630;27;20114;-70
2021/12/09 02:06:33;;;;;;;7.43;1.40;;;;;;;-149.78;100.00;50633.78;5135331;27;20031;-70
2021/12/09 02:08:59;;;;;;;6.60;1.10;;;;;;;-149.78;100.00;50580.97;5135608;27;20034;-70
2021/12/09 02:11:25;;;;;;;3.58;1.02;;;;;;;-149.78;100.00;50624.00;5135352;27;20050;-71
2021/12/09 02:13:55;;;;;;;1.63;1.10;;;;;;;-149.78;100.00;50606.41;5135452;27;20065;-71
2021/12/09 02:16:21;;;;;;;4.13;1.10;;;;;;;-149.78;100.00;50627.91;5117043;27;20027;-69
2021/12/09 02:18:48;;;;;;;4.00;1.20;;;;;;;-149.78;100.00;50616.19;5117103;27;20038;-70
2021/12/09 02:21:23;;;;;;;6.28;1.63;;;;;;;-149.78;100.00;50635.72;5133931;27;20444;-70
2021/12/09 02:23:52;;;;;;;8.60;2.13;;;;;;;-149.78;100.00;50624.00;5135299;27;20023;-70
2021/12/09 02:26:23;;;;;;;5.97;1.70;;;;;;;-149.78;100.00;50624.00;5134991;27;20031;-70
2021/12/09 02:28:49;;;;;;;6.87;1.73;;;;;;;-149.78;100.00;50620.09;5135357;27;20035;-70
2021/12/09 02:31:15;;;;;;;6.93;1.77;;;;;;;-149.78;100.00;50616.19;5134953;27;20079;-70
2021/12/09 02:33:41;;;;;;;12.77;2.45;;;;;;;-149.78;100.00;50651.38;5134966;27;20035;-70
2021/12/09 02:36:07;;;;;;;7.03;1.60;;;;;;;-149.78;100.00;50579.00;5134896;27;20023;-70
2021/12/09 02:38:35;;;;;;;10.23;2.75;;;;;;;-149.78;100.00;50629.88;5135068;27;20035;-70
2021/12/09 02:41:02;;;;;;;5.68;1.45;;;;;;;-149.78;100.00;50608.34;5134882;27;20027;-70
2021/12/09 02:43:29;;;;;;;8.35;2.15;;;;;;;-149.78;100.00;50590.75;5134817;27;20161;-70
2021/12/09 02:45:56;;;;;;;5.28;1.55;;;;;;;-149.78;100.00;50588.78;5139505;27;20034;-70
2021/12/09 02:48:23;;;;;;;11.50;1.73;;;;;;;-149.78;100.00;50629.88;5134565;27;20482;-70
2021/12/09 02:50:51;;;;;;;10.55;2.45;;;;;;;-149.78;100.00;50590.75;5134805;27;20020;-70
2021/12/09 02:53:18;;;;;;;13.27;1.70;;;;;;;-149.78;100.00;50612.25;5133507;27;20058;-70
2021/12/09 02:55:44;;;;;;;5.32;1.58;;;;;;;-149.78;100.00;50635.72;5134499;27;20026;-70
2021/12/09 02:58:10;;;;;;;10.77;1.73;;;;;;;-149.78;100.00;50616.19;5115984;27;20038;-70
2021/12/09 03:00:52;;;;;;;8.60;1.67;;;;;;;-149.78;100.00;50600.53;5133795;27;20081;-70
2021/12/09 03:03:18;;;;;;;8.50;1.85;;;;;;;-149.78;100.00;50606.41;5134008;27;20434;-70
2021/12/09 03:05:46;;;;;;;13.10;2.00;;;;;;;-149.78;100.00;50604.44;5134430;27;20074;-71
2021/12/09 03:08:17;;;;;;;9.85;2.20;;;;;;;-149.78;100.00;50618.13;5134446;27;20408;-70
2021/12/09 03:10:43;;;;;;;9.82;1.58;;;;;;;-149.78;100.00;50620.09;5133420;27;20437;-70
2021/12/09 03:13:10;;;;;;;13.07;2.00;;;;;;;-149.78;100.00;50620.09;5134241;27;20031;-70
2021/12/09 03:15:36;;;;;;;11.00;1.30;;;;;;;-149.78;100.00;50606.41;5134310;27;20429;-70
2021/12/09 03:18:02;;;;;;;5.50;1.52;;;;;;;-149.78;100.00;50592.72;5134496;27;20055;-70
2021/12/09 03:20:28;;;;;;;8.75;2.20;;;;;;;-149.78;100.00;50624.00;5134162;27;20073;-71
2021/12/09 03:22:53;;;;;;;11.80;1.80;;;;;;;-149.78;100.00;50620.09;5121073;27;20058;-70
2021/12/09 03:25:20;;;;;;;8.57;1.90;;;;;;;-149.78;100.00;50561.41;5134158;27;20039;-70
2021/12/09 03:27:47;;;;;;;10.63;1.80;;;;;;;-149.78;100.00;50575.09;5134173;27;20027;-70
2021/12/09 03:30:16;;;;;;;8.77;2.08;;;;;;;-149.78;100.00;50592.72;5134137;28;20023;-70
2021/12/09 03:32:42;;;;;;;5.28;1.63;;;;;;;-149.78;100.00;50590.75;5133998;27;20046;-71
2021/12/09 03:35:10;;;;;;;14.50;1.50;;;;;;;-149.78;100.00;50616.19;5134020;28;20117;-69
2021/12/09 03:37:36;;;;;;;4.55;1.60;;;;;;;-149.78;100.00;50659.19;5134170;28;20130;-70
2021/12/09 03:40:04;;;;;;;9.98;2.28;;;;;;;-149.78;100.00;50596.63;5134057;28;20034;-70
2021/12/09 03:42:31;;;;;;;14.45;2.15;;;;;;;-149.78;100.00;50577.06;5134245;28;20113;-70
2021/12/09 03:44:57;;;;;;;10.63;2.28;;;;;;;-149.78;100.00;50600.53;5134154;28;20466;-70
2021/12/09 03:47:26;;;;;;;14.18;2.25;;;;;;;-149.78;100.00;50584.88;5133760;28;20027;-70
2021/12/09 03:49:52;;;;;;;6.60;1.73;;;;;;;-149.78;100.00;50580.97;5134147;28;20454;-70
2021/12/09 03:52:18;;;;;;;7.93;2.00;;;;;;;-149.78;100.00;50614.22;5133925;28;20092;-70
2021/12/09 03:54:44;;;;;;;8.52;2.00;;;;;;;-149.78;100.00;50580.97;5133902;28;20431;-70
2021/12/09 03:57:11;;;;;;;8.35;1.70;;;;;;;-149.78;100.00;50580.97;5133872;28;20502;-70
2021/12/09 03:59:38;;;;;;;5.93;1.73;;;;;;;-149.78;100.00;50612.25;5133974;28;20378;-70
2021/12/09 04:02:04;;;;;;;11.77;1.80;;;;;;;-149.78;100.00;50590.75;5133678;28;20027;-70
2021/12/09 04:04:30;;;;;;;9.27;1.90;;;;;;;-149.78;100.00;50604.44;5133864;28;20039;-70
2021/12/09 04:06:56;;;;;;;10.68;2.20;;;;;;;-149.78;100.00;50608.34;5133637;28;20091;-70
2021/12/09 04:09:22;;;;;;;6.55;1.55;;;;;;;-149.78;100.00;50596.63;5133615;28;20042;-70
2021/12/09 04:11:50;;;;;;;8.63;1.92;;;;;;;-149.78;100.00;50612.25;5133934;28;20363;-70
2021/12/09 04:14:16;;;;;;;6.78;2.53;;;;;;;-149.78;100.00;50590.75;5133812;28;20438;-70
2021/12/09 04:16:43;;;;;;;14.38;2.78;;;;;;;-149.78;100.00;50588.78;5123579;27;20487;-70
2021/12/09 04:19:11;;;;;;;7.07;2.95;;;;;;;-149.78;100.00;50534.03;5112627;28;20070;-70
2021/12/09 04:21:37;;;;;;;5.13;1.70;;;;;;;-149.78;100.00;50600.53;5133198;28;20075;-70
2021/12/09 04:24:07;;;;;;;12.77;2.13;;;;;;;-149.78;100.00;50580.97;5133635;28;20059;-70
2021/12/09 04:26:38;;;;;;;4.40;1.60;;;;;;;-149.78;100.00;50561.41;5133712;28;20031;-70
2021/12/09 04:29:06;;;;;;;2.78;1.10;;;;;;;-149.78;100.00;50573.16;5133649;28;20126;-70
2021/12/09 04:31:32;;;;;;;3.53;0.88;;;;;;;-149.78;100.00;50600.53;5116854;28;20035;-70
2021/12/09 04:33:58;;;;;;;7.18;1.38;;;;;;;-149.78;100.00;50637.69;5133576;28;20031;-70
2021/12/09 04:36:25;;;;;;;9.63;1.42;;;;;;;-149.78;100.00;50629.88;5133425;28;20054;-70
2021/12/09 04:38:53;;;;;;;11.90;1.52;;;;;;;-149.78;100.00;50596.63;5133616;28;20041;-70
2021/12/09 04:41:19;;;;;;;6.47;1.27;;;;;;;-149.78;100.00;50606.41;5133409;28;20351;-70
2021/12/09 04:43:45;;;;;;;11.27;1.63;;;;;;;-149.78;100.00;50620.09;5134969;27;20100;-70
2021/12/09 04:46:11;;;;;;;5.70;1.17;;;;;;;-149.78;100.00;50577.06;5137043;27;20486;-70
2021/12/09 04:48:38;;;;;;;11.98;1.38;;;;;;;-149.78;100.00;50565.31;5137094;27;20481;-70
2021/12/09 04:51:04;;;;;;;4.90;1.30;;;;;;;-149.78;100.00;50590.75;5136848;27;20035;-70
2021/12/09 04:53:30;;;;;;;4.15;1.10;;;;;;;-149.78;100.00;50608.34;5136941;27;20458;-70
2021/12/09 04:55:55;;;;;;;8.68;1.17;;;;;;;-149.78;100.00;50584.88;5136999;27;20027;-70
2021/12/09 04:58:23;;;;;;;3.38;1.25;;;;;;;-149.78;100.00;50612.25;5134897;27;20434;-70
2021/12/09 05:00:51;;;;;;;3.85;1.00;;;;;;;-149.78;100.00;50604.44;5136626;27;20036;-70
2021/12/09 05:03:17;;;;;;;3.10;0.90;;;;;;;-149.78;100.00;50612.25;5136630;27;20100;-70
2021/12/09 05:05:49;;;;;;;3.60;0.93;;;;;;;-149.78;100.00;50600.53;5136677;27;20031;-70
2021/12/09 05:08:20;;;;;;;7.43;1.13;;;;;;;-149.78;100.00;50624.00;5136777;27;20023;-70
2021/12/09 05:13:26;;;;;;;5.20;1.27;;;;;;;-149.78;100.00;50616.19;5136569;27;20065;-70
2021/12/09 05:15:52;;;;;;;3.55;1.00;;;;;;;-149.78;100.00;50604.44;5136654;27;20027;-70
2021/12/09 05:18:19;;;;;;;2.10;0.90;;;;;;;-149.78;100.00;50600.53;5136667;27;20401;-70
2021/12/09 05:20:45;;;;;;;1.83;0.55;;;;;;;-149.78;100.00;50616.19;5136334;27;20035;-70
2021/12/09 05:23:12;;;;;;;1.10;0.60;;;;;;;-149.78;100.00;50594.66;5120611;27;20092;-70
2021/12/09 05:25:38;;;;;;;1.25;0.40;;;;;;;-149.78;100.00;50604.44;5136323;27;20382;-70
2021/12/09 05:28:04;;;;;;;1.08;0.40;;;;;;;-149.78;100.00;50596.63;5136294;27;20033;-70
2021/12/09 05:30:40;;;;;;;1.10;0.50;;;;;;;-149.78;100.00;50604.44;5136367;27;20061;-70
2021/12/09 05:33:06;;;;;;;2.63;0.30;;;;;;;-149.78;100.00;50602.47;5136305;27;20031;-70
2021/12/09 05:35:34;;;;;;;2.15;0.50;;;;;;;-149.78;100.00;50600.53;5136055;27;20430;-71
2021/12/09 05:38:00;;;;;;;1.38;0.47;;;;;;;-149.78;100.00;50569.22;5136284;27;20481;-70
2021/12/09 05:40:26;;;;;;;1.58;0.50;;;;;;;-149.78;100.00;50588.78;5136066;27;20043;-70
2021/12/09 05:42:52;;;;;;;1.55;0.70;;;;;;;-149.78;100.00;50622.03;5135992;27;20354;-70
2021/12/09 05:45:17;;;;;;;0.82;0.40;;;;;;;-149.78;100.00;50592.72;5136185;27;20057;-70
2021/12/09 05:47:43;;;;;;;5.43;0.82;;;;;;;-149.78;100.00;50620.09;5135958;27;20454;-71
2021/12/09 05:50:11;;;;;;;1.85;0.80;;;;;;;-149.78;100.00;50618.13;5135972;27;20019;-70
2021/12/09 05:52:37;;;;;;;3.47;0.93;;;;;;;-149.78;100.00;50606.41;5135876;27;20035;-70
2021/12/09 05:55:03;;;;;;;6.28;1.02;;;;;;;-149.78;100.00;50594.66;5135680;27;20039;-70
2021/12/09 05:57:28;;;;;;;12.88;1.70;;;;;;;-149.78;100.00;50612.25;5117214;27;20023;-70
2021/12/09 05:59:55;;;;;;;6.05;1.30;;;;;;;-149.78;100.00;50616.19;5135740;27;20494;-70
2021/12/09 06:02:21;;;;;;;4.10;1.15;;;;;;;-149.78;100.00;50602.47;5135620;27;20495;-70
2021/12/09 06:04:47;;;;;;;7.50;1.55;;;;;;;-149.78;100.00;50616.19;5135398;27;20050;-70
2021/12/09 06:07:14;;;;;;;16.05;2.83;;;;;;;-149.78;100.00;50592.72;5135608;27;20500;-70
2021/12/09 06:09:40;;;;;;;11.38;1.73;;;;;;;-149.78;100.00;50612.25;5135328;27;20080;-70
2021/12/09 06:12:08;;;;;;;13.80;2.65;;;;;;;-149.78;100.00;50553.59;5135498;27;20103;-70
2021/12/09 06:14:34;;;;;;;6.47;1.50;;;;;;;-149.78;100.00;50600.53;5135335;27;20035;-70
2021/12/09 06:17:00;;;;;;;12.80;2.30;;;;;;;-149.78;100.00;50592.72;5135386;27;20046;-70
2021/12/09 06:19:26;;;;;;;11.00;2.00;;;;;;;-149.78;100.00;50604.44;5135202;27;20122;-70
2021/12/09 06:21:52;;;;;;;19.45;2.38;;;;;;;-149.78;100.00;50604.44;5135118;27;20095;-70
2021/12/09 06:24:18;;;;;;;11.57;2.53;;;;;;;-149.78;100.00;50592.72;5135445;27;20077;-70
2021/12/09 06:26:45;;;;;;;8.20;1.60;;;;;;;-149.78;100.00;50580.97;5135181;27;20039;-70
2021/12/09 06:29:11;;;;;;;11.52;2.17;;;;;;;-149.78;100.00;50580.97;5135168;27;20046;-70
2021/12/09 06:31:38;;;;;;;17.33;2.00;;;;;;;-149.78;100.00;50594.66;5135174;27;20027;-70
2021/12/09 06:34:04;;;;;;;10.13;1.60;;;;;;;-149.78;100.00;50620.09;5134992;27;20079;-67
2021/12/09 06:36:29;;;;;;;12.13;1.85;;;;;;;-149.78;100.00;50592.72;5134405;27;20031;-66
2021/12/09 06:38:55;;;;;;;12.40;2.03;;;;;;;-149.78;100.00;50635.72;5134709;27;20059;-66
2021/12/09 06:41:21;;;;;;;9.98;1.90;;;;;;;-149.78;100.00;50608.34;5134439;27;20466;-67
2021/12/09 06:43:47;;;;;;;19.92;2.30;;;;;;;-149.78;100.00;50573.16;5134572;27;20031;-66
2021/12/09 06:46:13;;;;;;;9.75;1.73;;;;;;;-149.78;100.00;50584.88;5134508;27;20023;-66
2021/12/09 06:48:40;;;;;;;9.15;2.17;;;;;;;-149.78;100.00;50600.53;5134645;27;20387;-66
2021/12/09 06:51:07;;;;;;;16.45;2.75;;;;;;;-149.78;100.00;50565.31;5134192;27;20031;-66
2021/12/09 06:53:34;;;;;;;13.40;1.83;;;;;;;-149.78;100.00;50616.19;5134031;27;20026;-66
2021/12/09 06:56:00;;;;;;;12.77;1.80;;;;;;;-149.78;100.00;50616.19;5133962;27;20027;-66
2021/12/09 06:58:26;;;;;;;9.90;1.83;;;;;;;-149.78;100.00;50584.88;5134147;27;20172;-66
2021/12/09 07:00:54;;;;;;;7.13;1.80;;;;;;;-149.78;100.00;50600.53;5133544;27;20486;-66
2021/12/09 07:03:21;;;;;;;8.20;2.00;;;;;;;-149.78;100.00;50643.56;5133905;27;20525;-67
2021/12/09 07:05:52;;;;;;;15.57;1.80;;;;;;;-149.78;100.00;50620.09;5133798;27;20031;-66
2021/12/09 07:08:19;;;;;;;7.70;1.95;;;;;;;-149.78;100.00;50551.63;5115543;27;20035;-66
2021/12/09 07:10:45;;;;;;;11.43;2.15;;;;;;;-149.78;100.00;50608.34;5139961;27;20367;-66
2021/12/09 07:13:11;;;;;;;11.75;1.80;;;;;;;-149.78;100.00;50625.94;5143770;27;20034;-66
2021/12/09 07:15:37;;;;;;;10.48;2.35;;;;;;;-149.78;100.00;50631.81;5145482;27;20080;-66
2021/12/09 07:18:03;;;;;;;12.18;2.65;;;;;;;-149.78;100.00;50594.66;5145939;27;20026;-66
2021/12/09 07:20:30;;;;;;;14.38;2.35;;;;;;;-149.78;100.00;50584.88;5139481;27;20031;-66
2021/12/09 07:22:57;;;;;;;11.68;2.05;;;;;;;-149.78;100.00;50569.22;5120788;27;20447;-68
2021/12/09 07:25:26;;;;;;;13.32;2.10;;;;;;;-149.78;100.00;50594.66;5144907;27;20035;-66
2021/12/09 07:27:52;;;;;;;11.07;1.80;;;;;;;-149.78;100.00;50588.78;5126079;27;20377;-67
2021/12/09 07:30:20;;;;;;;13.93;2.00;;;;;;;-149.78;100.00;50573.16;5148746;27;20481;-69
2021/12/09 07:32:47;;;;;;;12.63;1.90;;;;;;;-149.78;100.00;50588.78;5147275;27;20030;-67
2021/12/09 07:35:14;;;;;;;14.00;3.85;;;;;;;-149.78;100.00;50604.44;5146456;27;20057;-66
2021/12/09 07:37:43;;;;;;;10.20;2.05;;;;;;;-149.78;100.00;50573.16;5134114;28;20031;-66
2021/12/09 07:40:16;;;;;;;13.85;2.60;;;;;;;-149.78;100.00;50612.25;5142133;27;20087;-67
2021/12/09 07:42:42;;;;;;;14.30;2.17;;;;;;;-149.78;100.00;50565.31;5137920;27;20396;-67
2021/12/09 07:45:10;;;;;;;17.65;2.28;;;;;;;-149.78;100.00;50579.00;5111744;27;20038;-67
2021/12/09 07:47:36;;;;;;;15.10;2.33;;;;;;;-149.78;100.00;50584.88;5141396;27;20034;-67
2021/12/09 07:50:04;;;;;;;9.43;2.70;;;;;;;-149.78;100.00;50616.19;5144332;27;20027;-66
2021/12/09 07:52:29;;;;;;;16.17;2.55;;;;;;;-149.78;100.00;50545.75;5136603;27;20034;-67
2021/12/09 07:54:55;;;;;;;18.88;1.90;;;;;;;-149.78;100.00;50604.44;5147614;27;20026;-67
2021/12/09 07:57:21;;;;;;;14.27;1.83;;;;;;;-149.78;100.00;50588.78;5151904;27;20039;-67
2021/12/09 07:59:46;;;;;;;14.45;2.40;;;;;;;-149.78;100.00;50588.78;5147743;27;20055;-67
2021/12/09 08:02:12;;;;;;;11.20;2.45;;;;;;;-149.78;100.00;50549.69;5123869;28;20088;-68
2021/12/09 08:04:38;;;;;;;17.33;2.33;;;;;;;-149.78;100.00;50596.63;5133465;27;20046;-68
2021/12/09 08:07:04;;;;;;;10.50;2.42;;;;;;;-149.78;100.00;50561.41;5139379;27;20057;-69
2021/12/09 08:09:30;;;;;;;15.57;3.20;;;;;;;-149.78;100.00;50580.97;5133288;27;20058;-68
2021/12/09 08:11:55;;;;;;;14.70;2.50;;;;;;;-149.78;100.00;50573.16;5144391;27;20035;-69
2021/12/09 08:14:21;;;;;;;8.73;2.30;;;;;;;-149.78;100.00;50520.34;5142786;27;20043;-69
2021/12/09 08:16:56;;;;;;;11.30;2.63;;;;;;;-149.78;100.00;50584.88;5124003;28;20055;-69
2021/12/09 08:19:22;;;;;;;10.70;2.53;;;;;;;-149.78;100.00;50612.25;5117710;27;20031;-69
2021/12/09 08:21:48;;;;;;;13.00;3.08;;;;;;;-149.78;100.00;50577.06;5132410;27;20054;-69
2021/12/09 08:24:14;;;;;;;10.80;2.50;;;;;;;-149.78;100.00;50580.97;5113524;27;20026;-69
2021/12/09 08:26:39;;;;;;;10.30;2.25;;;;;;;-149.78;100.00;50586.84;5149202;27;20079;-69
2021/12/09 08:29:06;;;;;;;11.23;2.90;;;;;;;-149.78;100.00;50547.72;5150571;27;20045;-69
2021/12/09 08:31:34;;;;;;;10.05;3.22;;;;;;;-149.78;100.00;50549.69;5152374;27;20031;-69
2021/12/09 08:34:04;;;;;;;9.73;2.80;;;;;;;-149.78;100.00;50600.53;5130371;27;20362;-69
2021/12/09 08:36:30;;;;;;;13.70;3.28;;;;;;;-149.78;100.00;50604.44;5125804;27;20039;-69
2021/12/09 08:38:56;;;;;;;13.77;2.88;;;;;;;-149.78;100.00;50582.94;5127859;27;20111;-69
2021/12/09 08:41:23;;;;;;;14.70;3.38;;;;;;;-149.78;100.00;50598.56;5134168;27;20456;-69
2021/12/09 08:43:49;;;;;;;14.88;3.83;;;;;;;-149.78;100.00;50600.53;5136807;27;20651;-68
2021/12/09 08:46:17;;;;;;;21.90;5.78;;;;;;;-149.78;100.00;50565.31;5136427;27;20039;-69
2021/12/09 08:48:42;;;;;;;23.35;5.70;;;;;;;-149.78;100.00;50596.63;5135532;27;20027;-69
2021/12/09 08:51:08;;;;;;;26.52;7.80;;;;;;;-149.78;100.00;50561.41;5140533;27;20478;-69
2021/12/09 08:53:34;;;;;;;18.02;7.30;;;;;;;-149.78;100.00;50596.63;5148335;27;20034;-69
2021/12/09 08:56:00;;;;;;;23.75;7.63;;;;;;;-149.78;100.00;50573.16;5147368;27;20023;-67
2021/12/09 08:58:29;;;;;;;18.75;5.68;;;;;;;-149.78;100.00;50577.06;5144866;27;20417;-68
2021/12/09 09:00:57;;;;;;;13.52;4.93;;;;;;;-149.78;100.00;50612.25;5137621;27;20333;-67
2021/12/09 09:03:24;;;;;;;18.73;5.30;;;;;;;-149.78;100.00;50573.16;5145691;27;20422;-67
2021/12/09 09:05:50;;;;;;;14.77;5.15;;;;;;;-149.78;100.00;50631.81;5151942;27;20022;-67
2021/12/09 09:08:16;;;;;;;14.95;5.20;;;;;;;-149.78;100.00;50608.34;5134003;27;20115;-67
2021/12/09 09:10:43;;;;;;;16.58;4.63;;;;;;;-149.78;100.00;50620.09;5118751;27;20030;-67
2021/12/09 09:13:13;;;;;;;8.60;3.67;;;;;;;-149.78;100.00;50600.53;5133877;27;20027;-67
2021/12/09 09:15:39;;;;;;;10.00;3.65;;;;;;;-149.78;100.00;50580.97;5140204;27;20092;-67
2021/12/09 09:18:05;;;;;;;13.25;4.20;;;;;;;-149.78;100.00;50584.88;5133564;27;20103;-67
2021/12/09 09:20:34;;;;;;;22.00;3.95;;;;;;;-149.78;100.00;50620.09;5135618;27;20415;-67
2021/12/09 09:23:00;;;;;;;9.63;4.05;;;;;;;-149.78;100.00;50604.44;5137257;27;20051;-67
2021/12/09 09:25:29;;;;;;;9.93;4.20;;;;;;;-149.78;100.00;50596.63;5133077;27;20470;-67
2021/12/09 09:27:58;;;;;;;7.20;3.40;;;;;;;-149.78;100.00;50600.53;5147372;27;20023;-67
2021/12/09 09:30:27;;;;;;;9.43;3.70;;;;;;;-149.78;100.00;50600.53;5135051;27;20019;-67
2021/12/09 09:32:53;;;;;;;14.93;5.32;;;;;;;-149.78;100.00;50624.00;5136393;27;20374;-68
2021/12/09 09:35:19;;;;;;;13.63;5.95;;;;;;;-149.78;100.00;50608.34;5136027;27;20027;-67
2021/12/09 09:37:46;;;;;;;16.85;6.78;;;;;;;-149.78;100.00;50592.72;5136111;27;20088;-67
2021/12/09 09:40:15;;;;;;;18.88;8.13;;;;;;;-149.78;100.00;50565.31;5142467;27;20037;-67
2021/12/09 09:45:11;;;;;;;24.48;9.00;;;;;;;-149.78;100.00;50604.44;5136030;27;20117;-68
2021/12/09 09:47:39;;;;;;;25.70;7.63;;;;;;;-149.78;100.00;50592.72;5136043;27;20041;-68
2021/12/09 09:50:07;;;;;;;18.20;6.32;;;;;;;-149.78;100.00;50561.41;5135854;27;20078;-68
2021/12/09 09:52:34;;;;;;;18.35;7.00;;;;;;;-149.78;100.00;50565.31;5135841;27;20067;-68
2021/12/09 09:55:01;;;;;;;22.85;7.35;;;;;;;-149.78;100.00;50588.78;5147620;27;20061;-68
2021/12/09 09:57:27;;;;;;;30.00;7.63;;;;;;;-149.78;100.00;50584.88;5136180;27;20043;-67
2021/12/09 09:59:53;;;;;;;27.75;6.22;;;;;;;-149.78;100.00;50592.72;5135737;27;20416;-68
2021/12/09 10:02:19;;;;;;;23.73;6.68;;;;;;;-149.78;100.00;50594.66;5140795;27;20030;-68
2021/12/09 10:04:57;;;;;;;13.98;6.05;;;;;;;-149.78;100.00;50549.69;5141906;27;20035;-67
2021/12/09 10:07:24;;;;;;;22.25;7.20;;;;;;;-149.78;100.00;50588.78;5143399;27;20083;-68
2021/12/09 10:09:51;;;;;;;18.40;6.25;;;;;;;-149.78;100.00;50596.63;5144174;27;20125;-68
2021/12/09 10:12:17;;;;;;;25.90;6.68;;;;;;;-149.78;100.00;50563.38;5137867;27;20050;-67
2021/12/09 10:14:52;;;;;;;21.90;8.07;;;;;;;-149.78;100.00;50590.75;5131151;27;20375;-68
2021/12/09 10:17:20;;;;;;;22.55;8.40;;;;;;;-149.78;100.00;50571.19;5117553;27;20027;-68
2021/12/09 10:19:46;;;;;;;22.35;7.45;;;;;;;-149.78;100.00;50565.31;5135042;27;20031;-68
2021/12/09 10:22:17;;;;;;;22.73;7.82;;;;;;;-149.78;100.00;50575.09;5134355;27;20538;-68
2021/12/09 10:24:44;;;;;;;19.48;7.45;;;;;;;-149.78;100.00;50592.72;5138059;27;20084;-68
2021/12/09 10:27:28;;;;;;;17.20;7.55;;;;;;;-149.78;100.00;50596.63;5117018;27;20047;-67
2021/12/09 10:30:03;;;;;;;17.92;7.80;;;;;;;-149.78;100.00;50579.00;5135222;27;20025;-67
2021/12/09 10:32:33;;;;;;;22.88;7.50;;;;;;;-149.78;100.00;50588.78;5126002;27;20031;-67
2021/12/09 10:35:19;;;;;;;22.70;8.30;;;;;;;-149.78;100.00;50561.41;5135538;27;20034;-68
2021/12/09 10:37:48;;;;;;;22.25;8.05;;;;;;;-149.78;100.00;50569.22;5106495;27;20080;-68
2021/12/09 10:40:19;;;;;;;22.88;8.40;;;;;;;-149.78;100.00;50573.16;5134364;27;20070;-67
2021/12/09 10:42:48;;;;;;;19.95;8.15;;;;;;;-149.78;100.00;50549.69;5134372;27;20119;-68
2021/12/09 10:45:20;;;;;;;25.08;9.13;;;;;;;-149.78;100.00;50545.75;5134683;27;20122;-68
2021/12/09 10:47:51;;;;;;;;;;;;;;;-149.78;100.00;50584.88;5140055;27;20110;-68
2021/12/09 10:52:58;;;;;;;21.08;7.10;;;;;;;-149.78;100.00;50563.38;5134717;27;20023;-68
2021/12/09 10:55:30;;;;;;;20.85;7.75;;;;;;;-149.78;100.00;50588.78;5144426;27;20067;-68
2021/12/09 10:58:09;;;;;;;13.85;7.30;;;;;;;-149.78;100.00;50592.72;5143129;27;20027;-68
2021/12/09 11:00:45;;;;;;;19.20;7.35;;;;;;;-149.78;100.00;50569.22;5149578;27;20026;-67
2021/12/09 11:03:20;;;;;;;16.48;7.15;;;;;;;-149.78;100.00;50592.72;5128618;27;20029;-68
2021/12/09 11:05:47;;;;;;;14.48;6.28;;;;;;;-149.78;100.00;50561.41;5137815;27;20023;-68
2021/12/09 11:08:20;;;;;;;19.90;6.40;;;;;;;-149.78;100.00;50584.88;5138512;27;20083;-67
2021/12/09 11:10:49;;;;;;;13.60;6.47;;;;;;;-149.78;100.00;50608.34;5145230;27;20107;-68
2021/12/09 11:13:21;;;;;;;17.13;5.88;;;;;;;-149.78;100.00;50530.13;5151786;27;20034;-68
2021/12/09 11:15:52;;;;;;;16.85;6.55;;;;;;;-149.78;100.00;50565.31;5138480;27;20057;-68